Time;durP1;ratioP1;P1;durP2;ratioP2;P2;SDS_P1;SDS_P2;PMS_P1;PMS_P2;Temp;Humidity;BMP_temperature;BMP_pressure;BME280_temperature;BME280_humidity;BME280_pressure;Samples;Min_cycle;Max_cycle;Signal;HPM_P1;HPM_P2
2022/09/10 00:01:17;;;;;;;9.50;8.50;;;;;;;;;;5050801;28;20041;-63
2022/09/10 00:03:43;;;;;;;11.23;7.95;;;;;;;;;;5048789;28;20041;-63
2022/09/10 00:06:09;;;;;;;10.55;8.02;;;;;;;;;;5043965;28;20082;-63
2022/09/10 00:08:35;;;;;;;11.68;8.05;;;;;;;;;;5049371;28;20037;-63
2022/09/10 00:11:06;;;;;;;13.25;8.23;;;;;;;;;;5051593;28;20155;-63
2022/09/10 00:13:32;;;;;;;12.00;8.90;;;;;;;;;;5048469;28;20136;-62
2022/09/10 00:16:00;;;;;;;10.75;8.75;;;;;;;;;;5033671;28;20086;-63
2022/09/10 00:18:26;;;;;;;13.20;8.85;;;;;;;;;;5053230;28;20049;-63
2022/09/10 00:20:54;;;;;;;12.02;8.70;;;;;;;;;;5053219;28;20041;-63
2022/09/10 00:23:22;;;;;;;11.02;8.90;;;;;;;;;;5050437;28;20045;-63
2022/09/10 00:25:51;;;;;;;10.52;8.45;;;;;;;;;;5049223;28;20032;-63
2022/09/10 00:28:17;;;;;;;10.98;8.57;;;;;;;;;;5051988;28;20491;-63
2022/09/10 00:30:45;;;;;;;12.10;8.98;;;;;;;;;;5045636;28;20045;-63
2022/09/10 00:33:12;;;;;;;10.73;8.00;;;;;;;;;;5045073;28;20048;-63
2022/09/10 00:35:41;;;;;;;10.95;8.77;;;;;;;;;;5044001;28;20098;-63
2022/09/10 00:38:08;;;;;;;11.50;8.90;;;;;;;;;;5050055;28;20402;-63
2022/09/10 00:40:34;;;;;;;11.95;9.10;;;;;;;;;;5050508;28;20060;-63
2022/09/10 00:43:00;;;;;;;11.45;8.90;;;;;;;;;;5051728;28;20051;-63
2022/09/10 00:45:28;;;;;;;12.35;8.98;;;;;;;;;;5051821;28;20095;-63
2022/09/10 00:47:58;;;;;;;12.32;8.57;;;;;;;;;;5043177;28;20403;-63
2022/09/10 00:50:38;;;;;;;11.45;8.93;;;;;;;;;;5045484;28;20037;-63
2022/09/10 00:53:06;;;;;;;10.98;8.75;;;;;;;;;;5053339;28;20072;-63
2022/09/10 00:55:33;;;;;;;12.25;9.43;;;;;;;;;;5050806;28;20029;-63
2022/09/10 00:58:01;;;;;;;12.35;10.13;;;;;;;;;;5051100;28;20052;-63
2022/09/10 01:00:27;;;;;;;12.40;9.57;;;;;;;;;;5050394;28;20075;-63
2022/09/10 01:02:54;;;;;;;15.10;10.60;;;;;;;;;;5048611;28;20040;-63
2022/09/10 01:05:20;;;;;;;13.25;10.15;;;;;;;;;;5047908;28;20048;-63
2022/09/10 01:07:47;;;;;;;13.93;10.65;;;;;;;;;;5050658;28;20040;-63
2022/09/10 01:10:16;;;;;;;13.52;11.02;;;;;;;;;;5049747;28;20045;-63
2022/09/10 01:13:01;;;;;;;15.27;11.23;;;;;;;;;;5051547;28;20045;-63
2022/09/10 01:15:50;;;;;;;12.57;9.85;;;;;;;;;;5046913;28;20079;-63
2022/09/10 01:18:35;;;;;;;14.25;10.88;;;;;;;;;;5009913;28;20045;-63
2022/09/10 01:21:07;;;;;;;13.40;10.85;;;;;;;;;;5042152;28;20080;-63
2022/09/10 01:23:40;;;;;;;15.65;11.80;;;;;;;;;;5049220;28;20087;-63
2022/09/10 01:26:13;;;;;;;17.50;12.00;;;;;;;;;;5046355;28;20449;-63
2022/09/10 01:28:39;;;;;;;15.23;11.48;;;;;;;;;;5043785;28;20179;-63
2022/09/10 01:31:19;;;;;;;15.35;12.35;;;;;;;;;;5048829;28;20129;-63
2022/09/10 01:34:02;;;;;;;18.20;11.20;;;;;;;;;;5042212;28;20041;-63
2022/09/10 01:36:30;;;;;;;13.82;10.30;;;;;;;;;;5045189;28;20479;-63
2022/09/10 01:38:57;;;;;;;14.63;11.57;;;;;;;;;;5045052;28;20182;-62
2022/09/10 01:41:24;;;;;;;15.35;12.18;;;;;;;;;;5051182;28;20438;-63
2022/09/10 01:43:50;;;;;;;16.20;11.82;;;;;;;;;;5047934;28;20060;-63
2022/09/10 01:46:20;;;;;;;15.75;12.02;;;;;;;;;;5055990;28;20507;-62
2022/09/10 01:48:53;;;;;;;14.70;12.07;;;;;;;;;;5050800;28;20051;-63
2022/09/10 01:51:33;;;;;;;18.17;11.50;;;;;;;;;;5051397;28;20045;-62
2022/09/10 01:53:59;;;;;;;15.60;11.63;;;;;;;;;;5045809;28;20092;-62
2022/09/10 01:56:34;;;;;;;14.63;11.48;;;;;;;;;;5048333;28;20051;-62
2022/09/10 01:59:03;;;;;;;15.43;11.68;;;;;;;;;;5046710;28;20106;-63
2022/09/10 02:01:35;;;;;;;16.20;11.40;;;;;;;;;;5044887;28;20371;-63
2022/09/10 02:04:04;;;;;;;14.20;12.10;;;;;;;;;;5050744;28;20122;-62
2022/09/10 02:06:33;;;;;;;16.33;12.13;;;;;;;;;;5030251;28;20064;-62
2022/09/10 02:09:00;;;;;;;14.98;11.52;;;;;;;;;;5048491;28;20053;-62
2022/09/10 02:11:26;;;;;;;16.65;11.80;;;;;;;;;;5045039;28;20042;-63
2022/09/10 02:13:52;;;;;;;16.55;11.80;;;;;;;;;;5051100;28;20045;-63
2022/09/10 02:16:29;;;;;;;17.33;12.55;;;;;;;;;;5046327;28;20049;-62
2022/09/10 02:18:56;;;;;;;15.52;12.07;;;;;;;;;;5050246;28;20119;-62
2022/09/10 02:21:22;;;;;;;16.17;11.27;;;;;;;;;;5052037;28;20536;-62
2022/09/10 02:23:51;;;;;;;19.05;13.20;;;;;;;;;;5052867;28;20059;-62
2022/09/10 02:26:17;;;;;;;20.23;13.45;;;;;;;;;;5049835;28;20037;-62
2022/09/10 02:28:43;;;;;;;18.52;12.65;;;;;;;;;;5046771;28;20051;-63
2022/09/10 02:31:10;;;;;;;17.30;12.38;;;;;;;;;;5047244;28;20750;-62
2022/09/10 02:33:35;;;;;;;19.08;12.35;;;;;;;;;;5049968;28;20033;-62
2022/09/10 02:36:02;;;;;;;18.02;12.88;;;;;;;;;;5042079;28;20518;-63
2022/09/10 02:38:28;;;;;;;17.92;12.95;;;;;;;;;;5047301;28;20040;-62
2022/09/10 02:40:56;;;;;;;17.58;12.75;;;;;;;;;;5049006;28;20047;-62
2022/09/10 02:43:22;;;;;;;20.70;12.73;;;;;;;;;;5049141;28;20052;-62
2022/09/10 02:45:48;;;;;;;18.63;12.73;;;;;;;;;;5027733;28;20052;-63
2022/09/10 02:48:14;;;;;;;16.98;12.85;;;;;;;;;;5045910;28;20086;-62
2022/09/10 02:50:40;;;;;;;19.23;13.07;;;;;;;;;;5031020;28;20041;-62
2022/09/10 02:53:06;;;;;;;17.70;12.68;;;;;;;;;;5048268;28;20132;-62
2022/09/10 02:55:32;;;;;;;18.95;13.38;;;;;;;;;;5049503;28;20033;-63
2022/09/10 02:57:58;;;;;;;16.45;13.18;;;;;;;;;;5048456;28;20413;-62
2022/09/10 03:00:24;;;;;;;17.80;12.98;;;;;;;;;;5050491;28;20532;-62
2022/09/10 03:02:50;;;;;;;19.55;13.15;;;;;;;;;;5047486;28;20041;-63
2022/09/10 03:05:16;;;;;;;19.75;13.75;;;;;;;;;;5047106;28;20048;-63
2022/09/10 03:07:43;;;;;;;21.25;14.40;;;;;;;;;;5048874;28;20742;-62
2022/09/10 03:10:09;;;;;;;22.00;13.65;;;;;;;;;;5043273;28;20045;-63
2022/09/10 03:12:36;;;;;;;23.52;13.05;;;;;;;;;;5049272;28;20047;-62
2022/09/10 03:15:02;;;;;;;20.70;12.85;;;;;;;;;;5046192;28;20417;-63
2022/09/10 03:17:28;;;;;;;20.60;13.23;;;;;;;;;;5049425;28;20090;-62
2022/09/10 03:19:54;;;;;;;18.73;13.07;;;;;;;;;;5048625;28;20044;-63
2022/09/10 03:22:20;;;;;;;21.52;12.70;;;;;;;;;;5038057;28;20128;-63
2022/09/10 03:24:46;;;;;;;21.70;13.93;;;;;;;;;;5043784;28;20120;-62
2022/09/10 03:27:15;;;;;;;20.27;12.25;;;;;;;;;;5046762;28;20033;-63
2022/09/10 03:29:41;;;;;;;17.33;12.02;;;;;;;;;;5038404;28;20499;-63
2022/09/10 03:32:07;;;;;;;19.70;12.52;;;;;;;;;;5046184;28;20068;-63
2022/09/10 03:34:33;;;;;;;20.00;12.45;;;;;;;;;;5047113;28;20040;-62
2022/09/10 03:36:59;;;;;;;19.25;12.52;;;;;;;;;;5048406;28;20041;-62
2022/09/10 03:39:25;;;;;;;20.90;12.88;;;;;;;;;;5045369;28;20073;-63
2022/09/10 03:41:51;;;;;;;22.30;13.65;;;;;;;;;;5046141;28;20084;-62
2022/09/10 03:44:17;;;;;;;20.13;14.20;;;;;;;;;;5046852;28;20551;-63
2022/09/10 03:46:44;;;;;;;21.88;13.57;;;;;;;;;;5045420;28;20037;-62
2022/09/10 03:49:10;;;;;;;21.02;12.52;;;;;;;;;;5049011;28;20041;-62
2022/09/10 03:51:36;;;;;;;19.55;12.75;;;;;;;;;;5042015;28;20047;-63
2022/09/10 03:54:03;;;;;;;21.00;13.32;;;;;;;;;;5052516;28;20037;-62
2022/09/10 03:56:29;;;;;;;22.63;14.10;;;;;;;;;;5045600;28;20071;-63
2022/09/10 03:58:56;;;;;;;19.63;13.15;;;;;;;;;;5051665;28;20570;-63
2022/09/10 04:01:23;;;;;;;20.30;13.30;;;;;;;;;;5049112;28;20591;-63
2022/09/10 04:03:49;;;;;;;21.77;14.07;;;;;;;;;;5047490;28;20049;-63
2022/09/10 04:06:15;;;;;;;18.60;13.40;;;;;;;;;;5047823;28;20394;-62
2022/09/10 04:08:45;;;;;;;23.20;14.02;;;;;;;;;;5030756;28;20065;-63
2022/09/10 04:11:12;;;;;;;22.33;14.15;;;;;;;;;;5044666;28;20059;-62
2022/09/10 04:13:38;;;;;;;19.45;13.45;;;;;;;;;;5048762;28;20537;-63
2022/09/10 04:16:04;;;;;;;21.95;13.90;;;;;;;;;;5045502;28;20438;-62
2022/09/10 04:18:33;;;;;;;23.38;14.55;;;;;;;;;;5048219;28;20048;-63
2022/09/10 04:20:59;;;;;;;26.95;14.63;;;;;;;;;;5053205;28;20045;-63
2022/09/10 04:23:25;;;;;;;22.98;14.32;;;;;;;;;;5050289;28;20091;-63
2022/09/10 04:25:51;;;;;;;23.67;14.45;;;;;;;;;;5052352;28;20033;-63
2022/09/10 04:28:18;;;;;;;24.27;14.40;;;;;;;;;;5051675;28;20116;-63
2022/09/10 04:30:44;;;;;;;20.73;14.60;;;;;;;;;;5056814;28;20067;-63
2022/09/10 04:33:13;;;;;;;24.00;15.10;;;;;;;;;;5040672;28;20103;-63
2022/09/10 04:35:40;;;;;;;24.30;15.00;;;;;;;;;;5042621;28;20069;-63
2022/09/10 04:38:07;;;;;;;25.60;15.20;;;;;;;;;;5047208;28;20043;-63
2022/09/10 04:40:33;;;;;;;26.50;15.55;;;;;;;;;;5048766;28;20045;-64
2022/09/10 04:42:59;;;;;;;26.20;14.95;;;;;;;;;;5036688;28;20457;-63
2022/09/10 04:45:26;;;;;;;27.33;15.80;;;;;;;;;;5043913;28;20267;-63
2022/09/10 04:47:53;;;;;;;28.27;16.27;;;;;;;;;;5051903;28;20060;-63
2022/09/10 04:50:20;;;;;;;24.73;16.52;;;;;;;;;;5046507;28;20070;-63
2022/09/10 04:52:45;;;;;;;28.70;17.52;;;;;;;;;;5056044;22;20041;-65
2022/09/10 04:55:11;;;;;;;24.33;16.38;;;;;;;;;;5026415;28;20049;-66
2022/09/10 04:57:38;;;;;;;27.58;17.58;;;;;;;;;;5022691;28;20037;-65
2022/09/10 05:00:08;;;;;;;28.38;16.35;;;;;;;;;;5026167;28;20045;-65
2022/09/10 05:02:36;;;;;;;31.70;16.80;;;;;;;;;;5026783;28;20037;-65
2022/09/10 05:05:02;;;;;;;35.00;18.45;;;;;;;;;;5037323;28;20057;-65
2022/09/10 05:07:29;;;;;;;30.65;18.98;;;;;;;;;;5035536;28;20033;-65
2022/09/10 05:09:55;;;;;;;34.00;18.17;;;;;;;;;;5031339;28;20465;-66
2022/09/10 05:12:22;;;;;;;28.58;17.65;;;;;;;;;;5031620;28;20038;-65
2022/09/10 05:14:48;;;;;;;37.03;18.35;;;;;;;;;;5030253;28;20042;-65
2022/09/10 05:17:14;;;;;;;32.47;18.92;;;;;;;;;;5019660;28;20096;-65
2022/09/10 05:19:40;;;;;;;35.95;19.05;;;;;;;;;;5032515;28;20113;-65
2022/09/10 05:22:06;;;;;;;34.05;19.50;;;;;;;;;;5030538;28;20033;-65
2022/09/10 05:24:33;;;;;;;38.88;20.73;;;;;;;;;;5029964;28;20499;-65
2022/09/10 05:26:59;;;;;;;35.90;20.10;;;;;;;;;;5036223;28;20117;-65
2022/09/10 05:29:26;;;;;;;40.03;20.58;;;;;;;;;;5029855;28;20033;-65
2022/09/10 05:31:52;;;;;;;43.70;20.13;;;;;;;;;;5031706;28;20399;-65
2022/09/10 05:34:19;;;;;;;38.08;19.83;;;;;;;;;;5026682;28;20060;-65
2022/09/10 05:36:45;;;;;;;36.38;19.63;;;;;;;;;;5028089;28;20047;-65
2022/09/10 05:39:11;;;;;;;39.95;20.48;;;;;;;;;;5025067;28;20038;-65
2022/09/10 05:41:37;;;;;;;30.58;19.08;;;;;;;;;;5030300;28;20194;-65
2022/09/10 05:44:04;;;;;;;37.75;20.35;;;;;;;;;;5027373;28;20050;-65
2022/09/10 05:46:30;;;;;;;32.88;20.30;;;;;;;;;;5030383;28;20056;-65
2022/09/10 05:48:56;;;;;;;37.85;20.33;;;;;;;;;;5036464;28;20049;-65
2022/09/10 05:51:26;;;;;;;37.08;20.55;;;;;;;;;;5029209;28;20124;-65
2022/09/10 05:53:52;;;;;;;37.63;20.95;;;;;;;;;;5031452;28;20053;-65
2022/09/10 05:56:19;;;;;;;36.67;20.70;;;;;;;;;;5029157;28;20128;-65
2022/09/10 05:58:45;;;;;;;36.30;19.75;;;;;;;;;;5029022;28;20033;-66
2022/09/10 06:01:11;;;;;;;38.70;20.42;;;;;;;;;;5027717;28;20104;-65
2022/09/10 06:03:38;;;;;;;33.10;18.73;;;;;;;;;;5030561;28;20496;-65
2022/09/10 06:06:05;;;;;;;37.78;20.52;;;;;;;;;;5031002;28;20051;-66
2022/09/10 06:08:31;;;;;;;32.88;19.75;;;;;;;;;;5032335;28;20490;-65
2022/09/10 06:10:57;;;;;;;33.15;20.80;;;;;;;;;;5027598;28;20041;-65
2022/09/10 06:13:24;;;;;;;37.95;20.65;;;;;;;;;;5023891;28;20102;-65
2022/09/10 06:15:50;;;;;;;38.28;19.65;;;;;;;;;;5026247;28;20037;-65
2022/09/10 06:18:16;;;;;;;34.90;19.83;;;;;;;;;;5020900;28;20052;-65
2022/09/10 06:20:42;;;;;;;34.50;19.45;;;;;;;;;;5026234;28;20128;-66
2022/09/10 06:23:08;;;;;;;34.03;18.58;;;;;;;;;;5025194;28;20095;-65
2022/09/10 06:25:34;;;;;;;39.45;19.10;;;;;;;;;;5038690;28;20037;-65
2022/09/10 06:28:01;;;;;;;35.95;19.60;;;;;;;;;;5032168;28;20048;-65
2022/09/10 06:30:27;;;;;;;36.00;20.33;;;;;;;;;;5027070;28;20124;-66
2022/09/10 06:32:53;;;;;;;37.03;19.65;;;;;;;;;;5024788;28;20568;-65
2022/09/10 06:35:20;;;;;;;33.80;18.13;;;;;;;;;;5024573;28;20075;-65
2022/09/10 06:37:46;;;;;;;36.30;19.70;;;;;;;;;;5027470;28;20037;-66
2022/09/10 06:40:12;;;;;;;35.30;18.30;;;;;;;;;;5030088;28;20048;-65
2022/09/10 06:42:39;;;;;;;37.13;19.52;;;;;;;;;;5026422;28;20037;-66
2022/09/10 06:45:05;;;;;;;37.83;19.77;;;;;;;;;;5026504;28;20052;-65
2022/09/10 06:47:31;;;;;;;34.95;18.75;;;;;;;;;;5024716;28;20041;-65
2022/09/10 06:49:57;;;;;;;34.33;19.73;;;;;;;;;;5028839;28;20046;-66
2022/09/10 06:52:23;;;;;;;34.50;19.02;;;;;;;;;;5028134;28;20033;-66
2022/09/10 06:54:50;;;;;;;34.35;19.70;;;;;;;;;;5030660;28;20034;-65
2022/09/10 06:57:16;;;;;;;33.55;18.77;;;;;;;;;;5028782;28;20053;-66
2022/09/10 06:59:43;;;;;;;34.58;18.58;;;;;;;;;;5023604;28;20045;-66
2022/09/10 07:02:09;;;;;;;33.00;18.92;;;;;;;;;;5033509;28;20037;-65
2022/09/10 07:04:35;;;;;;;32.83;18.30;;;;;;;;;;5026492;28;20045;-66
2022/09/10 07:07:01;;;;;;;30.80;18.38;;;;;;;;;;5020861;28;20119;-66
2022/09/10 07:09:27;;;;;;;31.60;18.30;;;;;;;;;;5027651;28;20041;-66
2022/09/10 07:11:53;;;;;;;30.45;18.00;;;;;;;;;;5025799;28;20045;-65
2022/09/10 07:14:19;;;;;;;27.30;16.63;;;;;;;;;;5029176;28;20408;-66
2022/09/10 07:16:46;;;;;;;33.55;18.80;;;;;;;;;;5032281;28;20038;-66
2022/09/10 07:19:13;;;;;;;29.10;17.55;;;;;;;;;;5026459;28;20064;-66
2022/09/10 07:21:40;;;;;;;29.13;17.38;;;;;;;;;;5028675;28;20069;-66
2022/09/10 07:24:06;;;;;;;29.25;17.80;;;;;;;;;;5031487;28;20037;-66
2022/09/10 07:26:32;;;;;;;29.90;17.63;;;;;;;;;;5032659;28;20045;-65
2022/09/10 07:28:59;;;;;;;29.92;17.23;;;;;;;;;;5032965;28;20399;-66
2022/09/10 07:31:29;;;;;;;29.70;16.98;;;;;;;;;;5037260;28;20496;-66
2022/09/10 07:33:59;;;;;;;33.17;17.38;;;;;;;;;;5033431;28;20091;-66
2022/09/10 07:36:26;;;;;;;27.90;17.55;;;;;;;;;;5035501;28;20495;-66
2022/09/10 07:38:53;;;;;;;29.17;16.20;;;;;;;;;;5033401;28;20120;-66
2022/09/10 07:41:19;;;;;;;30.25;16.67;;;;;;;;;;5028907;28;20380;-66
2022/09/10 07:43:45;;;;;;;27.80;16.90;;;;;;;;;;5030276;28;20095;-66
2022/09/10 07:46:13;;;;;;;30.55;16.67;;;;;;;;;;5031553;28;20068;-65
2022/09/10 07:48:40;;;;;;;28.80;16.48;;;;;;;;;;5030966;28;20399;-65
2022/09/10 07:51:07;;;;;;;27.75;16.45;;;;;;;;;;5017489;28;20069;-65
2022/09/10 07:53:33;;;;;;;26.02;16.48;;;;;;;;;;5021655;28;20041;-65
2022/09/10 07:56:04;;;;;;;24.92;14.73;;;;;;;;;;5030579;28;20114;-65
2022/09/10 07:58:30;;;;;;;23.40;15.05;;;;;;;;;;5030940;28;20037;-65
2022/09/10 08:00:58;;;;;;;24.83;14.73;;;;;;;;;;5031478;28;20041;-66
2022/09/10 08:03:25;;;;;;;23.52;15.13;;;;;;;;;;5018689;28;20049;-65
2022/09/10 08:05:51;;;;;;;23.35;14.90;;;;;;;;;;5022983;28;20041;-66
2022/09/10 08:08:18;;;;;;;24.25;15.50;;;;;;;;;;5029778;28;20045;-65
2022/09/10 08:10:45;;;;;;;22.02;14.38;;;;;;;;;;5031761;28;20045;-66
2022/09/10 08:13:11;;;;;;;21.70;14.27;;;;;;;;;;5025836;28;20108;-66
2022/09/10 08:15:41;;;;;;;22.50;13.77;;;;;;;;;;5033933;28;20046;-65
2022/09/10 08:18:07;;;;;;;20.67;13.70;;;;;;;;;;5020430;28;20069;-66
2022/09/10 08:20:33;;;;;;;21.35;13.27;;;;;;;;;;5035811;28;20531;-65
2022/09/10 08:23:02;;;;;;;19.83;12.68;;;;;;;;;;5036145;28;20129;-65
2022/09/10 08:25:28;;;;;;;22.30;12.90;;;;;;;;;;5031680;28;20033;-65
2022/09/10 08:27:54;;;;;;;17.02;13.20;;;;;;;;;;5039701;28;20100;-66
2022/09/10 08:30:20;;;;;;;22.55;14.02;;;;;;;;;;5028216;28;20120;-65
2022/09/10 08:32:46;;;;;;;22.60;13.95;;;;;;;;;;5025183;28;20490;-65
2022/09/10 08:35:13;;;;;;;19.90;13.93;;;;;;;;;;5026708;28;20103;-65
2022/09/10 08:37:39;;;;;;;20.25;14.20;;;;;;;;;;5031494;28;20124;-65
2022/09/10 08:40:06;;;;;;;19.75;14.07;;;;;;;;;;5038965;28;20120;-66
2022/09/10 08:42:41;;;;;;;18.88;12.50;;;;;;;;;;5030678;28;20125;-66
2022/09/10 08:45:16;;;;;;;19.35;13.88;;;;;;;;;;5024777;28;20034;-65
2022/09/10 08:47:42;;;;;;;18.30;12.90;;;;;;;;;;5017369;28;20556;-65
2022/09/10 08:50:24;;;;;;;16.15;11.73;;;;;;;;;;5029026;28;20091;-65
2022/09/10 08:52:53;;;;;;;15.45;11.13;;;;;;;;;;5031038;28;20041;-65
2022/09/10 08:55:24;;;;;;;19.88;12.10;;;;;;;;;;5032004;28;20119;-65
2022/09/10 08:57:54;;;;;;;15.73;11.20;;;;;;;;;;5031470;28;20529;-65
2022/09/10 09:00:22;;;;;;;14.43;10.40;;;;;;;;;;5030981;28;20041;-65
2022/09/10 09:03:01;;;;;;;16.65;10.55;;;;;;;;;;5031574;28;20099;-66
2022/09/10 09:05:27;;;;;;;18.67;11.90;;;;;;;;;;5029885;28;20056;-66
2022/09/10 09:07:54;;;;;;;15.18;11.63;;;;;;;;;;5023898;28;20033;-66
2022/09/10 09:10:20;;;;;;;15.25;11.80;;;;;;;;;;5033055;28;20444;-66
2022/09/10 09:13:04;;;;;;;15.07;11.90;;;;;;;;;;5035769;28;20041;-65
2022/09/10 09:15:35;;;;;;;18.25;11.13;;;;;;;;;;5028565;28;20041;-65
2022/09/10 09:18:11;;;;;;;15.38;11.30;;;;;;;;;;5022236;28;20104;-65
2022/09/10 09:20:45;;;;;;;17.98;12.32;;;;;;;;;;5028844;28;20029;-66
2022/09/10 09:23:14;;;;;;;17.30;11.05;;;;;;;;;;5025588;28;20053;-66
2022/09/10 09:25:48;;;;;;;17.58;12.13;;;;;;;;;;5028910;28;20391;-66
2022/09/10 09:28:18;;;;;;;14.43;11.38;;;;;;;;;;5032214;28;20036;-66
2022/09/10 09:30:48;;;;;;;16.13;11.75;;;;;;;;;;5025695;28;20495;-66
2022/09/10 09:33:16;;;;;;;16.98;11.82;;;;;;;;;;5034220;28;20410;-65
2022/09/10 09:35:48;;;;;;;18.15;12.45;;;;;;;;;;5027376;28;20545;-66
2022/09/10 09:38:14;;;;;;;19.00;12.98;;;;;;;;;;5030042;28;20083;-67
2022/09/10 09:40:50;;;;;;;17.05;11.77;;;;;;;;;;5030881;28;20068;-69
2022/09/10 09:43:31;;;;;;;16.10;10.15;;;;;;;;;;5031954;28;20384;-68
2022/09/10 09:45:57;;;;;;;11.45;9.25;;;;;;;;;;5031584;28;20037;-68
2022/09/10 09:48:24;;;;;;;16.17;10.68;;;;;;;;;;5027087;28;20483;-68
2022/09/10 09:50:52;;;;;;;15.45;11.10;;;;;;;;;;5024807;28;20053;-68
2022/09/10 09:53:25;;;;;;;14.40;11.63;;;;;;;;;;5025371;28;20042;-67
2022/09/10 09:55:53;;;;;;;14.82;12.00;;;;;;;;;;5025783;28;20419;-68
2022/09/10 09:58:25;;;;;;;14.48;11.02;;;;;;;;;;5029239;28;20522;-68
2022/09/10 10:01:03;;;;;;;16.35;11.75;;;;;;;;;;5036486;28;20049;-67
2022/09/10 10:03:30;;;;;;;14.70;12.02;;;;;;;;;;5035464;28;20042;-67
2022/09/10 10:06:07;;;;;;;17.20;12.77;;;;;;;;;;5028024;28;20487;-67
2022/09/10 10:08:42;;;;;;;19.75;12.13;;;;;;;;;;5025600;28;20519;-67
2022/09/10 10:11:08;;;;;;;18.67;11.90;;;;;;;;;;5030013;28;20069;-68
2022/09/10 10:13:38;;;;;;;14.82;11.60;;;;;;;;;;5027361;28;20052;-68
2022/09/10 10:16:20;;;;;;;16.23;11.50;;;;;;;;;;5022666;28;20052;-69
2022/09/10 10:18:46;;;;;;;16.77;11.57;;;;;;;;;;5027318;28;20041;-68
2022/09/10 10:21:20;;;;;;;17.60;11.50;;;;;;;;;;5022950;28;20088;-68
2022/09/10 10:23:46;;;;;;;16.75;11.82;;;;;;;;;;5026361;28;20041;-68
2022/09/10 10:26:15;;;;;;;15.63;11.95;;;;;;;;;;5025138;28;20104;-68
2022/09/10 10:28:45;;;;;;;14.80;9.93;;;;;;;;;;5028927;28;20057;-69
2022/09/10 10:31:11;;;;;;;14.82;10.25;;;;;;;;;;5030976;28;20049;-68
2022/09/10 10:33:45;;;;;;;11.88;9.30;;;;;;;;;;5023627;28;20080;-68
2022/09/10 10:36:46;;;;;;;12.90;8.60;;;;;;;;;;5022988;28;20503;-68
2022/09/10 10:39:18;;;;;;;11.02;7.65;;;;;;;;;;4950633;28;20059;-66
2022/09/10 10:41:52;;;;;;;12.57;8.77;;;;;;;;;;5013424;28;20049;-68
2022/09/10 10:44:37;;;;;;;10.93;7.85;;;;;;;;;;5025786;28;20064;-68
2022/09/10 10:47:06;;;;;;;9.20;7.25;;;;;;;;;;5022488;28;20057;-67
2022/09/10 10:49:58;;;;;;;10.35;6.50;;;;;;;;;;5019778;28;20044;-69
2022/09/10 10:54:59;;;;;;;8.20;5.70;;;;;;;;;;5019990;28;20582;-66
2022/09/10 10:57:52;;;;;;;8.27;5.25;;;;;;;;;;5029300;28;20049;-66
2022/09/10 11:00:19;;;;;;;7.70;5.22;;;;;;;;;;5033767;28;20130;-66
2022/09/10 11:02:51;;;;;;;7.65;5.45;;;;;;;;;;5034644;28;20048;-66
2022/09/10 11:05:24;;;;;;;6.47;4.72;;;;;;;;;;5011526;28;20034;-67
2022/09/10 11:07:51;;;;;;;7.43;4.30;;;;;;;;;;5012094;28;20500;-66
2022/09/10 11:10:20;;;;;;;8.23;6.70;;;;;;;;;;5013478;28;20074;-66
2022/09/10 11:12:55;;;;;;;9.75;6.00;;;;;;;;;;5021415;28;20514;-66
2022/09/10 11:15:28;;;;;;;8.32;5.82;;;;;;;;;;5011055;28;20036;-66
2022/09/10 11:17:57;;;;;;;7.40;5.75;;;;;;;;;;5013421;28;20050;-67
2022/09/10 11:20:28;;;;;;;9.10;6.60;;;;;;;;;;4991514;28;20064;-65
2022/09/10 11:22:57;;;;;;;8.52;6.30;;;;;;;;;;5005881;28;20061;-66
2022/09/10 11:25:28;;;;;;;10.38;6.40;;;;;;;;;;5009920;28;20037;-66
2022/09/10 11:27:58;;;;;;;9.50;6.28;;;;;;;;;;5011149;28;20361;-66
2022/09/10 11:30:24;;;;;;;9.82;6.28;;;;;;;;;;4994946;28;20053;-66
2022/09/10 11:32:54;;;;;;;10.35;6.15;;;;;;;;;;5009220;28;20161;-66
2022/09/10 11:35:22;;;;;;;8.25;6.10;;;;;;;;;;5008607;28;20041;-66
2022/09/10 11:37:51;;;;;;;9.23;5.95;;;;;;;;;;4992497;28;20048;-66
2022/09/10 11:40:38;;;;;;;7.38;6.07;;;;;;;;;;5011848;28;20075;-66
2022/09/10 11:43:12;;;;;;;9.70;5.60;;;;;;;;;;4975379;28;20057;-66
2022/09/10 11:45:58;;;;;;;10.63;6.22;;;;;;;;;;5011025;28;20040;-66
2022/09/10 11:48:28;;;;;;;9.18;5.30;;;;;;;;;;5008168;28;20042;-65
2022/09/10 11:51:01;;;;;;;9.35;5.80;;;;;;;;;;5013781;28;20096;-66
2022/09/10 11:53:29;;;;;;;9.60;6.00;;;;;;;;;;5010324;28;20057;-66
2022/09/10 11:56:06;;;;;;;8.07;5.45;;;;;;;;;;5012981;28;20073;-66
2022/09/10 11:58:34;;;;;;;9.35;5.55;;;;;;;;;;5011045;28;20038;-66
2022/09/10 12:01:03;;;;;;;6.90;5.60;;;;;;;;;;5012751;28;20046;-66
2022/09/10 12:03:29;;;;;;;7.22;5.20;;;;;;;;;;5009305;28;20671;-66
2022/09/10 12:06:05;;;;;;;7.45;5.25;;;;;;;;;;5013945;28;20204;-66
2022/09/10 12:08:37;;;;;;;6.05;5.00;;;;;;;;;;5012835;28;20037;-66
2022/09/10 12:11:23;;;;;;;7.28;4.93;;;;;;;;;;5013533;28;20049;-66
2022/09/10 12:13:51;;;;;;;5.80;4.82;;;;;;;;;;5012194;28;20041;-67
2022/09/10 12:16:37;;;;;;;7.80;5.20;;;;;;;;;;5012515;28;20565;-66
2022/09/10 12:19:14;;;;;;;8.27;6.07;;;;;;;;;;5010178;28;20057;-66
2022/09/10 12:21:42;;;;;;;7.75;5.55;;;;;;;;;;5013076;28;20483;-66
2022/09/10 12:24:24;;;;;;;8.02;5.25;;;;;;;;;;4995751;28;20161;-66
2022/09/10 12:26:51;;;;;;;7.45;5.18;;;;;;;;;;5012068;28;20508;-67
2022/09/10 12:29:26;;;;;;;9.55;5.40;;;;;;;;;;5012789;28;20045;-66
2022/09/10 12:32:22;;;;;;;8.48;5.18;;;;;;;;;;5008211;28;20407;-66
2022/09/10 12:35:08;;;;;;;6.63;4.85;;;;;;;;;;4996176;28;20123;-67
2022/09/10 12:37:33;;;;;;;8.48;5.93;;;;;;;;;;5007780;28;20038;-66
2022/09/10 12:40:38;;;;;;;7.75;5.70;;;;;;;;;;5009742;28;20049;-66
2022/09/10 12:43:23;;;;;;;11.48;7.03;;;;;;;;;;4959039;28;20047;-66
2022/09/10 12:46:16;;;;;;;11.75;6.78;;;;;;;;;;4921855;29;20127;-66
2022/09/10 12:48:46;;;;;;;9.68;7.20;;;;;;;;;;4996481;28;20053;-66
2022/09/10 12:51:22;;;;;;;9.37;5.73;;;;;;;;;;5012843;28;20038;-66
2022/09/10 12:53:48;;;;;;;8.73;5.90;;;;;;;;;;5017895;28;20313;-66
2022/09/10 12:56:37;;;;;;;10.07;6.28;;;;;;;;;;5022266;28;20064;-66
2022/09/10 12:59:26;;;;;;;10.48;6.10;;;;;;;;;;5032566;28;20057;-66
2022/09/10 13:01:52;;;;;;;9.77;6.72;;;;;;;;;;5005086;28;20416;-66
2022/09/10 13:04:25;;;;;;;8.02;6.20;;;;;;;;;;5010702;28;20045;-66
2022/09/10 13:06:54;;;;;;;11.05;7.10;;;;;;;;;;5015486;28;20124;-66
2022/09/10 13:09:26;;;;;;;8.23;6.25;;;;;;;;;;5012065;28;20068;-67
2022/09/10 13:11:53;;;;;;;9.98;6.18;;;;;;;;;;5008479;28;20041;-66
2022/09/10 13:14:25;;;;;;;8.35;6.15;;;;;;;;;;5005857;28;20074;-66
2022/09/10 13:16:51;;;;;;;8.85;4.80;;;;;;;;;;5007009;28;20508;-66
2022/09/10 13:19:18;;;;;;;7.30;5.05;;;;;;;;;;5009612;28;20116;-66
2022/09/10 13:21:44;;;;;;;8.27;5.32;;;;;;;;;;5007919;28;20092;-66
2022/09/10 13:24:30;;;;;;;8.80;5.57;;;;;;;;;;5010346;28;20042;-66
2022/09/10 13:27:16;;;;;;;7.57;5.22;;;;;;;;;;5006561;28;20042;-66
2022/09/10 13:29:54;;;;;;;8.02;5.07;;;;;;;;;;5010553;28;20037;-66
2022/09/10 13:32:33;;;;;;;7.13;5.03;;;;;;;;;;5009059;28;20037;-65
2022/09/10 13:34:59;;;;;;;8.20;5.57;;;;;;;;;;4975154;28;20053;-66
2022/09/10 13:37:29;;;;;;;8.82;5.85;;;;;;;;;;5019502;28;20045;-66
2022/09/10 13:40:01;;;;;;;8.05;5.68;;;;;;;;;;5001450;28;20050;-66
2022/09/10 13:42:46;;;;;;;8.13;5.10;;;;;;;;;;5008428;28;20099;-66
2022/09/10 13:45:12;;;;;;;6.70;4.45;;;;;;;;;;5009378;28;20042;-66
2022/09/10 13:47:46;;;;;;;9.50;5.88;;;;;;;;;;4984498;28;20057;-66
2022/09/10 13:50:14;;;;;;;6.80;5.03;;;;;;;;;;5004761;28;20041;-66
2022/09/10 13:52:44;;;;;;;6.07;4.68;;;;;;;;;;5008439;28;20043;-66
2022/09/10 13:55:17;;;;;;;7.30;5.28;;;;;;;;;;5007037;28;20045;-66
2022/09/10 13:57:44;;;;;;;9.75;4.72;;;;;;;;;;5012763;28;20046;-66
2022/09/10 14:00:19;;;;;;;6.80;4.75;;;;;;;;;;5008072;28;20064;-66
2022/09/10 14:02:56;;;;;;;7.25;5.07;;;;;;;;;;5007970;28;20096;-66
2022/09/10 14:05:23;;;;;;;6.38;4.78;;;;;;;;;;5001008;28;20069;-66
2022/09/10 14:08:00;;;;;;;8.63;5.40;;;;;;;;;;5006160;28;20116;-66
2022/09/10 14:10:27;;;;;;;7.82;5.18;;;;;;;;;;4989553;28;20041;-66
2022/09/10 14:12:53;;;;;;;8.18;5.13;;;;;;;;;;5010977;28;20045;-66
2022/09/10 14:15:24;;;;;;;9.05;5.78;;;;;;;;;;5007558;28;20176;-66
2022/09/10 14:17:52;;;;;;;9.30;5.57;;;;;;;;;;5005060;28;20046;-65
2022/09/10 14:20:28;;;;;;;9.80;5.15;;;;;;;;;;5004069;28;20033;-66
2022/09/10 14:22:59;;;;;;;6.93;4.70;;;;;;;;;;5005834;28;20076;-66
2022/09/10 14:25:30;;;;;;;6.68;5.15;;;;;;;;;;5003777;28;20034;-66
2022/09/10 14:28:11;;;;;;;7.75;4.60;;;;;;;;;;5003111;28;20042;-66
2022/09/10 14:30:37;;;;;;;6.95;4.15;;;;;;;;;;5003406;28;20133;-66
2022/09/10 14:33:24;;;;;;;10.25;5.05;;;;;;;;;;5008561;28;20054;-66
2022/09/10 14:35:51;;;;;;;7.15;4.65;;;;;;;;;;5002276;28;20062;-66
2022/09/10 14:38:25;;;;;;;11.32;5.40;;;;;;;;;;4989020;28;20045;-66
2022/09/10 14:40:55;;;;;;;6.72;4.05;;;;;;;;;;4990917;28;20519;-66